createdAt,value
2022-10-01T00:03:41.325Z,10.65
2022-10-01T00:07:23.173Z,12.38
2022-10-01T00:11:16.878Z,10.43
2022-10-01T00:15:01.058Z,13.05
2022-10-01T00:18:47.467Z,13.77
2022-10-01T00:22:32.363Z,16.95
2022-10-01T00:26:17.187Z,13.82
2022-10-01T00:29:59.057Z,12.85
2022-10-01T00:33:40.985Z,12.85
2022-10-01T00:37:22.794Z,13.13
2022-10-01T00:41:05.379Z,13.98
2022-10-01T00:44:47.602Z,15.20
2022-10-01T00:48:33.250Z,13.98
2022-10-01T00:52:21.660Z,13.15
2022-10-01T00:56:04.930Z,15.57
2022-10-01T00:59:47.982Z,15.32
2022-10-01T01:03:29.909Z,13.10
2022-10-01T01:07:12.229Z,13.85
2022-10-01T01:11:05.147Z,10.77
2022-10-01T01:15:17.142Z,15.13
2022-10-01T01:19:02.282Z,14.07
2022-10-01T01:22:52.920Z,11.77
2022-10-01T01:27:04.466Z,13.65
2022-10-01T01:30:52.087Z,15.55
2022-10-01T01:34:36.225Z,13.32
2022-10-01T01:38:28.065Z,15.63
2022-10-01T01:42:33.034Z,13.40
2022-10-01T01:46:18.663Z,10.32
2022-10-01T01:50:03.035Z,13.05
2022-10-01T01:53:44.986Z,12.27
2022-10-01T01:57:26.938Z,11.13
2022-10-01T02:01:33.382Z,12.07
2022-10-01T02:05:20.588Z,12.27
2022-10-01T02:09:34.065Z,12.23
2022-10-01T02:13:35.219Z,10.23
2022-10-01T02:17:35.360Z,11.65
2022-10-01T02:21:25.980Z,14.63
2022-10-01T02:25:10.838Z,13.13
2022-10-01T02:28:56.155Z,8.55
2022-10-01T02:32:40.588Z,7.57
2022-10-01T02:36:25.849Z,8.75
2022-10-01T02:40:15.896Z,7.72
2022-10-01T02:44:05.638Z,13.35
2022-10-01T02:47:52.890Z,10.93
2022-10-01T02:51:55.475Z,11.63
2022-10-01T02:55:39.705Z,12.88
2022-10-01T02:59:22.662Z,9.13
2022-10-01T03:03:04.525Z,11.82
2022-10-01T03:06:46.498Z,12.07
2022-10-01T03:10:28.459Z,13.98
2022-10-01T03:14:11.141Z,11.23
2022-10-01T03:17:53.893Z,11.82
2022-10-01T03:21:36.256Z,8.50
2022-10-01T03:25:18.402Z,8.95
2022-10-01T03:29:00.263Z,9.35
2022-10-01T03:32:42.160Z,8.68
2022-10-01T03:36:24.100Z,7.80
2022-10-01T03:40:06.658Z,12.15
2022-10-01T03:43:48.620Z,12.00
2022-10-01T03:47:30.524Z,8.45
2022-10-01T03:51:15.550Z,8.90
2022-10-01T03:55:00.756Z,10.13
2022-10-01T03:58:42.799Z,7.75
2022-10-01T04:02:25.523Z,10.85
2022-10-01T04:06:07.863Z,10.75
2022-10-01T04:09:51.060Z,10.73
2022-10-01T04:13:33.385Z,10.52
2022-10-01T04:17:15.203Z,13.65
2022-10-01T04:20:57.914Z,8.07
2022-10-01T04:24:39.711Z,10.30
2022-10-01T04:28:21.710Z,7.45
2022-10-01T04:32:03.708Z,8.57
2022-10-01T04:35:45.986Z,6.50
2022-10-01T04:39:27.831Z,7.97
2022-10-01T04:43:11.379Z,5.15
2022-10-01T04:46:53.767Z,9.40
2022-10-01T04:50:35.676Z,8.43
2022-10-01T04:54:17.539Z,6.40
2022-10-01T04:58:00.621Z,7.75
2022-10-01T05:01:42.563Z,8.13
2022-10-01T05:05:27.264Z,8.10
2022-10-01T05:09:09.110Z,7.93
2022-10-01T05:12:52.039Z,8.63
2022-10-01T05:16:33.917Z,7.43
2022-10-01T05:20:24.581Z,10.77
2022-10-01T05:24:06.653Z,6.50
2022-10-01T05:27:48.612Z,8.98
2022-10-01T05:31:30.614Z,8.35
2022-10-01T05:35:12.509Z,10.70
2022-10-01T05:38:54.379Z,7.95
2022-10-01T05:42:36.253Z,8.07
2022-10-01T05:46:18.275Z,11.43
2022-10-01T05:50:00.174Z,5.82
2022-10-01T05:53:42.052Z,8.55
2022-10-01T05:57:23.923Z,9.38
2022-10-01T06:01:08.822Z,9.77
2022-10-01T06:04:50.680Z,10.27
2022-10-01T06:08:35.069Z,9.43
2022-10-01T06:12:19.824Z,7.15
2022-10-01T06:16:02.105Z,9.50
2022-10-01T06:19:44.013Z,11.07
2022-10-01T06:23:25.890Z,9.25
2022-10-01T06:27:07.763Z,8.65
2022-10-01T06:30:50.071Z,8.20
2022-10-01T06:34:31.926Z,9.30
2022-10-01T06:38:14.350Z,10.88
2022-10-01T06:41:56.275Z,10.85
2022-10-01T06:45:42.970Z,10.70
2022-10-01T06:53:06.876Z,6.53
2022-10-01T06:56:48.762Z,10.18
2022-10-01T07:00:33.006Z,8.63
2022-10-01T07:04:14.886Z,12.77
2022-10-01T07:07:56.784Z,8.52
2022-10-01T07:11:41.377Z,8.82
2022-10-01T07:15:23.226Z,8.85
2022-10-01T07:19:05.102Z,8.13
2022-10-01T07:22:48.424Z,13.35
2022-10-01T07:26:30.345Z,8.32
2022-10-01T07:30:12.283Z,9.88
2022-10-01T07:33:58.485Z,6.60
2022-10-01T07:37:40.322Z,7.80
2022-10-01T07:41:22.572Z,10.13
2022-10-01T07:45:06.751Z,11.30
2022-10-01T07:48:49.560Z,9.90
2022-10-01T07:52:31.388Z,7.85
2022-10-01T07:56:14.079Z,9.82
2022-10-01T07:59:56.266Z,9.40
2022-10-01T08:03:38.206Z,7.95
2022-10-01T08:07:20.074Z,8.43
2022-10-01T08:11:05.470Z,6.20
2022-10-01T08:14:47.920Z,8.82
2022-10-01T08:18:29.905Z,6.28
2022-10-01T08:22:12.302Z,5.80
2022-10-01T08:26:03.060Z,4.90
2022-10-01T08:29:44.919Z,7.85
2022-10-01T08:33:26.826Z,6.65
2022-10-01T08:37:08.699Z,10.50
2022-10-01T08:40:51.560Z,6.35
2022-10-01T08:44:43.498Z,10.00
2022-10-01T08:48:38.603Z,10.38
2022-10-01T08:52:30.825Z,8.13
2022-10-01T08:56:47.630Z,8.40
2022-10-01T09:00:32.747Z,12.27
2022-10-01T09:04:15.283Z,9.35
2022-10-01T09:08:18.456Z,8.07
2022-10-01T09:12:12.954Z,6.55
2022-10-01T09:16:16.306Z,7.47
2022-10-01T09:20:26.998Z,11.30
2022-10-01T09:24:15.840Z,8.05
2022-10-01T09:28:21.572Z,8.00
2022-10-01T09:32:06.003Z,9.52
2022-10-01T09:36:05.183Z,7.57
2022-10-01T09:39:55.895Z,11.93
2022-10-01T09:43:39.582Z,8.40
2022-10-01T09:47:25.228Z,7.68
2022-10-01T09:51:09.225Z,10.00
2022-10-01T09:55:00.252Z,11.13
2022-10-01T09:58:49.291Z,8.50
2022-10-01T10:02:48.482Z,9.07
2022-10-01T10:06:32.174Z,9.80
2022-10-01T10:10:26.219Z,9.65
2022-10-01T10:14:21.071Z,7.30
2022-10-01T10:18:23.016Z,10.93
2022-10-01T10:22:19.521Z,8.07
2022-10-01T10:26:07.349Z,8.43
2022-10-01T10:29:49.236Z,5.40
2022-10-01T10:33:31.106Z,6.57
2022-10-01T10:37:19.302Z,7.47
2022-10-01T10:41:03.832Z,4.63
2022-10-01T10:44:49.384Z,5.10
2022-10-01T10:48:36.879Z,6.07
2022-10-01T10:52:32.385Z,7.03
2022-10-01T10:56:23.602Z,6.05
2022-10-01T11:00:18.477Z,12.20
2022-10-01T11:04:01.499Z,6.68
2022-10-01T11:07:45.394Z,5.30
2022-10-01T11:12:05.221Z,9.23
2022-10-01T11:16:08.895Z,4.97
2022-10-01T11:19:57.421Z,7.30
2022-10-01T11:23:58.046Z,10.30
2022-10-01T11:27:50.792Z,10.25
2022-10-01T11:31:50.436Z,6.45
2022-10-01T11:35:47.512Z,8.25
2022-10-01T11:39:31.769Z,5.55
2022-10-01T11:43:32.634Z,5.20
2022-10-01T11:47:27.630Z,5.30
2022-10-01T11:51:16.445Z,5.55
2022-10-01T11:55:38.797Z,5.43
2022-10-01T11:59:24.676Z,5.22
2022-10-01T12:03:11.852Z,7.47
2022-10-01T12:07:06.672Z,6.68
2022-10-01T12:10:55.095Z,7.78
2022-10-01T12:15:07.093Z,4.45
2022-10-01T12:18:54.937Z,6.30
2022-10-01T12:22:39.577Z,5.03
2022-10-01T12:26:50.037Z,4.82
2022-10-01T12:30:57.080Z,6.13
2022-10-01T12:34:42.930Z,3.17
2022-10-01T12:39:02.364Z,4.97
2022-10-01T12:42:52.854Z,5.30
2022-10-01T12:46:58.971Z,4.82
2022-10-01T12:51:02.614Z,2.93
2022-10-01T12:55:13.807Z,3.60
2022-10-01T12:59:06.482Z,3.75
2022-10-01T13:02:57.474Z,4.25
2022-10-01T13:06:58.148Z,4.20
2022-10-01T13:11:03.522Z,7.00
2022-10-01T13:14:46.327Z,5.25
2022-10-01T13:18:31.176Z,4.55
2022-10-01T13:22:32.554Z,8.38
2022-10-01T13:26:36.939Z,7.47
2022-10-01T13:30:26.541Z,7.28
2022-10-01T13:34:34.000Z,6.07
2022-10-01T13:38:30.837Z,6.90
2022-10-01T13:42:24.618Z,4.60
2022-10-01T13:46:09.464Z,7.72
2022-10-01T13:50:18.411Z,6.13
2022-10-01T13:54:02.269Z,8.18
2022-10-01T13:57:44.125Z,6.82
2022-10-01T14:01:41.203Z,5.80
2022-10-01T14:05:38.798Z,6.13
2022-10-01T14:09:28.438Z,5.25
2022-10-01T14:13:29.046Z,5.63
2022-10-01T14:17:11.654Z,4.30
2022-10-01T14:21:28.600Z,5.28
2022-10-01T14:25:26.796Z,5.68
2022-10-01T14:29:14.163Z,6.25
2022-10-01T14:33:17.742Z,5.43
2022-10-01T14:37:00.578Z,4.68
2022-10-01T14:40:43.836Z,3.97
2022-10-01T14:44:36.394Z,6.22
2022-10-01T14:48:18.270Z,4.25
2022-10-01T14:52:06.201Z,4.55
2022-10-01T14:55:49.919Z,4.75
2022-10-01T14:59:36.357Z,4.38
2022-10-01T15:07:04.895Z,6.00
2022-10-01T15:10:56.249Z,5.53
2022-10-01T15:14:38.299Z,7.90
2022-10-01T15:18:21.045Z,7.30
2022-10-01T15:22:03.160Z,5.00
2022-10-01T15:25:45.213Z,5.82
2022-10-01T15:29:27.208Z,7.03
2022-10-01T15:33:40.532Z,8.15
2022-10-01T15:37:35.002Z,9.05
2022-10-01T15:41:32.591Z,8.68
2022-10-01T15:45:24.285Z,6.32
2022-10-01T15:49:15.791Z,9.15
2022-10-01T15:53:18.559Z,8.95
2022-10-01T15:57:02.325Z,9.02
2022-10-01T16:01:00.730Z,8.18
2022-10-01T16:04:42.676Z,9.30
2022-10-01T16:08:36.686Z,6.38
2022-10-01T16:12:28.729Z,9.27
2022-10-01T16:16:20.691Z,6.10
2022-10-01T16:20:33.590Z,11.07
2022-10-01T16:24:29.397Z,7.60
2022-10-01T16:28:33.303Z,8.15
2022-10-01T16:32:15.134Z,7.15
2022-10-01T16:36:09.740Z,8.95
2022-10-01T16:39:51.564Z,6.63
2022-10-01T16:43:33.475Z,9.18
2022-10-01T16:47:15.480Z,5.53
2022-10-01T16:50:59.274Z,8.35
2022-10-01T16:54:41.176Z,9.90
2022-10-01T16:58:23.115Z,6.90
2022-10-01T17:02:05.206Z,7.45
2022-10-01T17:05:47.697Z,7.85
2022-10-01T17:09:29.545Z,5.50
2022-10-01T17:13:15.544Z,6.40
2022-10-01T17:16:57.562Z,7.50
2022-10-01T17:20:39.949Z,4.97
2022-10-01T17:24:22.221Z,6.70
2022-10-01T17:28:06.775Z,6.15
2022-10-01T17:31:53.245Z,5.13
2022-10-01T17:39:19.499Z,6.13
2022-10-01T17:43:01.383Z,7.40
2022-10-01T17:46:43.293Z,6.03
2022-10-01T17:50:26.125Z,5.47
2022-10-01T17:54:07.962Z,5.88
2022-10-01T17:57:50.183Z,6.20
2022-10-01T18:01:32.134Z,3.60
2022-10-01T18:05:15.204Z,7.20
2022-10-01T18:08:57.161Z,5.13
2022-10-01T18:12:39.249Z,4.65
2022-10-01T18:16:21.840Z,7.20
2022-10-01T18:20:06.210Z,3.72
2022-10-01T18:23:48.141Z,7.07
2022-10-01T18:27:30.048Z,9.68
2022-10-01T18:31:11.975Z,5.03
2022-10-01T18:34:58.912Z,6.15
2022-10-01T18:38:41.780Z,3.60
2022-10-01T18:42:53.995Z,8.13
2022-10-01T18:46:44.898Z,5.55
2022-10-01T18:50:32.427Z,5.45
2022-10-01T18:54:41.349Z,7.30
2022-10-01T18:58:48.926Z,4.05
2022-10-01T19:03:02.067Z,7.40
2022-10-01T19:07:17.325Z,6.22
2022-10-01T19:11:23.160Z,5.45
2022-10-01T19:15:14.012Z,5.35
2022-10-01T19:19:16.622Z,8.07
2022-10-01T19:23:38.129Z,4.93
2022-10-01T19:27:57.599Z,7.03
2022-10-01T19:31:49.170Z,6.63
2022-10-01T19:35:45.678Z,5.15
2022-10-01T19:39:34.380Z,4.72
2022-10-01T19:43:23.904Z,8.27
2022-10-01T19:47:34.103Z,4.97
2022-10-01T19:51:21.164Z,7.28
2022-10-01T19:55:03.517Z,8.23
2022-10-01T19:58:45.869Z,6.93
2022-10-01T20:02:46.240Z,6.75
2022-10-01T20:06:37.276Z,7.07
2022-10-01T20:10:29.522Z,6.68
2022-10-01T20:14:34.020Z,9.95
2022-10-01T20:18:27.985Z,7.45
2022-10-01T20:22:13.096Z,12.05
2022-10-01T20:26:03.051Z,9.90
2022-10-01T20:30:14.387Z,7.95
2022-10-01T20:34:12.065Z,12.27
2022-10-01T20:38:33.832Z,10.48
2022-10-01T20:42:29.506Z,12.38
2022-10-01T20:46:31.167Z,7.22
2022-10-01T20:50:15.603Z,10.73
2022-10-01T20:54:11.940Z,7.22
2022-10-01T20:57:58.633Z,8.80
2022-10-01T21:01:53.217Z,9.52
2022-10-01T21:05:46.149Z,7.53
2022-10-01T21:09:46.290Z,8.20
2022-10-01T21:13:31.215Z,7.85
2022-10-01T21:17:31.230Z,10.40
2022-10-01T21:21:37.455Z,8.82
2022-10-01T21:25:44.700Z,8.23
2022-10-01T21:29:45.342Z,6.60
2022-10-01T21:33:34.661Z,9.52
2022-10-01T21:37:41.253Z,9.73
2022-10-01T21:41:50.508Z,10.67
2022-10-01T21:45:39.194Z,9.90
2022-10-01T21:49:30.166Z,11.40
2022-10-01T21:53:30.073Z,10.25
2022-10-01T21:57:30.815Z,8.38
2022-10-01T22:01:36.906Z,9.77
2022-10-01T22:05:23.462Z,8.40
2022-10-01T22:09:51.651Z,11.70
2022-10-01T22:17:25.071Z,9.68
2022-10-01T22:21:14.153Z,7.25
2022-10-01T22:24:59.407Z,9.40
2022-10-01T22:28:46.460Z,9.80
2022-10-01T22:32:38.960Z,7.75
2022-10-01T22:36:47.311Z,7.60
2022-10-01T22:40:42.319Z,7.70
2022-10-01T22:44:24.410Z,8.00
2022-10-01T22:48:06.774Z,8.75
2022-10-01T22:51:54.688Z,7.28
2022-10-01T22:55:54.755Z,8.50
2022-10-01T23:00:01.642Z,10.55
2022-10-01T23:03:56.084Z,6.63
2022-10-01T23:08:13.488Z,9.32
2022-10-01T23:12:04.277Z,10.80
2022-10-01T23:16:00.194Z,9.50
2022-10-01T23:20:17.530Z,8.10
2022-10-01T23:24:14.590Z,8.20
2022-10-01T23:28:24.775Z,7.13
2022-10-01T23:32:48.904Z,7.13
2022-10-01T23:37:06.630Z,6.07
2022-10-01T23:40:51.840Z,5.20
2022-10-01T23:44:47.849Z,8.38
2022-10-01T23:48:29.633Z,4.40
2022-10-01T23:52:14.516Z,8.30
2022-10-01T23:56:22.629Z,8.18
